Time;durP1;ratioP1;P1;durP2;ratioP2;P2;SDS_P1;SDS_P2;PMS_P1;PMS_P2;Temp;Humidity;BMP_temperature;BMP_pressure;BME280_temperature;BME280_humidity;BME280_pressure;Samples;Min_cycle;Max_cycle;Signal;HPM_P1;HPM_P2
2021/10/17 00:00:12;;;;;;;4.72;2.20;;;;;;;7.39;100.00;101322.22;4965856;28;20046;-83
2021/10/17 00:02:42;;;;;;;5.85;2.55;;;;;;;7.41;100.00;101327.53;4994705;28;20046;-84
2021/10/17 00:05:09;;;;;;;5.13;2.58;;;;;;;7.35;100.00;101323.13;4998473;28;20033;-83
2021/10/17 00:07:36;;;;;;;6.68;2.85;;;;;;;7.34;100.00;101321.34;4972102;28;20136;-83
2021/10/17 00:10:06;;;;;;;4.00;2.60;;;;;;;7.31;100.00;101319.59;4968529;28;20544;-83
2021/10/17 00:12:32;;;;;;;3.53;2.55;;;;;;;7.33;100.00;101323.13;4975347;28;20569;-82
2021/10/17 00:14:59;;;;;;;6.18;2.10;;;;;;;7.37;100.00;101315.22;4987906;28;20460;-84
2021/10/17 00:17:26;;;;;;;3.28;2.35;;;;;;;7.31;100.00;101322.25;4976154;28;20054;-83
2021/10/17 00:19:53;;;;;;;4.18;2.47;;;;;;;7.28;100.00;101319.56;4974695;28;20037;-84
2021/10/17 00:22:19;;;;;;;4.63;2.83;;;;;;;7.31;100.00;101318.69;4990039;28;20409;-83
2021/10/17 00:24:46;;;;;;;4.65;2.45;;;;;;;7.27;100.00;101323.06;5006565;28;20532;-83
2021/10/17 00:27:13;;;;;;;3.87;2.37;;;;;;;7.27;100.00;101324.84;4992203;28;20065;-83
2021/10/17 00:29:39;;;;;;;4.25;2.20;;;;;;;7.27;100.00;101328.34;4990110;28;20085;-84
2021/10/17 00:32:09;;;;;;;3.97;2.20;;;;;;;7.25;100.00;101321.31;4992013;28;20417;-84
2021/10/17 00:34:36;;;;;;;5.27;2.40;;;;;;;7.22;100.00;101311.66;4984042;28;20045;-84
2021/10/17 00:37:03;;;;;;;4.95;2.47;;;;;;;7.23;100.00;101315.16;4992595;28;20052;-84
2021/10/17 00:39:30;;;;;;;7.50;2.40;;;;;;;7.23;100.00;101312.53;4973806;28;20050;-85
2021/10/17 00:41:57;;;;;;;4.63;2.92;;;;;;;7.22;100.00;101310.78;5004945;28;20031;-84
2021/10/17 00:44:24;;;;;;;5.33;2.20;;;;;;;7.21;100.00;101315.16;4988960;28;20531;-84
2021/10/17 00:46:51;;;;;;;4.40;2.30;;;;;;;7.26;100.00;101312.56;5008811;28;20061;-83
2021/10/17 00:49:17;;;;;;;5.03;2.77;;;;;;;7.26;100.00;101304.69;5006891;28;20684;-84
2021/10/17 00:51:45;;;;;;;4.45;2.25;;;;;;;7.24;100.00;101307.31;5008576;28;20042;-83
2021/10/17 00:54:13;;;;;;;4.57;2.50;;;;;;;7.22;100.00;101310.78;4971275;28;20284;-83
2021/10/17 00:56:42;;;;;;;4.93;2.40;;;;;;;7.17;100.00;101302.91;4991650;28;20042;-83
2021/10/17 00:59:09;;;;;;;3.50;2.50;;;;;;;7.18;100.00;101309.91;4986902;28;20426;-84
2021/10/17 01:01:37;;;;;;;4.43;2.70;;;;;;;7.19;100.00;101306.41;5009056;28;20042;-85
2021/10/17 01:04:04;;;;;;;4.57;3.00;;;;;;;7.21;100.00;101309.03;4994438;28;20620;-84
2021/10/17 01:06:31;;;;;;;4.47;2.50;;;;;;;7.13;100.00;101311.63;4976857;28;20417;-84
2021/10/17 01:08:58;;;;;;;3.60;2.38;;;;;;;7.10;100.00;101302.88;4976630;28;20046;-83
2021/10/17 01:11:41;;;;;;;4.93;2.90;;;;;;;7.12;100.00;101302.00;4992120;28;20054;-84
2021/10/17 01:14:09;;;;;;;4.13;2.67;;;;;;;7.11;100.00;101305.50;4987759;28;20408;-84
2021/10/17 01:16:39;;;;;;;3.20;2.40;;;;;;;7.11;100.00;101307.25;4976215;28;20508;-84
2021/10/17 01:19:05;;;;;;;4.47;2.40;;;;;;;7.12;100.00;101301.13;4997504;28;20048;-83
2021/10/17 01:21:33;;;;;;;5.23;2.43;;;;;;;7.11;100.00;101294.13;4978595;28;20049;-83
2021/10/17 01:24:02;;;;;;;5.17;2.57;;;;;;;7.11;100.00;101302.00;4994210;28;20857;-83
2021/10/17 01:26:28;;;;;;;4.37;2.30;;;;;;;7.11;100.00;101288.84;4996379;28;20053;-81
2021/10/17 01:28:55;;;;;;;4.10;2.58;;;;;;;7.11;100.00;101289.72;4993747;28;20493;-82
2021/10/17 01:31:41;;;;;;;4.73;2.43;;;;;;;7.11;100.00;101288.84;4992731;28;20031;-83
2021/10/17 01:34:08;;;;;;;4.10;2.40;;;;;;;7.09;100.00;101277.47;5000249;28;20045;-82
2021/10/17 01:36:36;;;;;;;3.17;2.03;;;;;;;7.13;100.00;101274.84;4995465;28;20042;-82
2021/10/17 01:39:05;;;;;;;5.10;3.00;;;;;;;7.13;100.00;101273.97;4992789;28;20041;-81
2021/10/17 01:41:32;;;;;;;4.00;2.43;;;;;;;7.10;100.00;101269.59;4995620;28;20480;-83
2021/10/17 01:44:10;;;;;;;4.43;3.23;;;;;;;7.10;100.00;101268.72;4983001;28;20061;-83
2021/10/17 01:46:38;;;;;;;4.73;2.40;;;;;;;7.10;100.00;101269.59;4974785;28;20600;-84
2021/10/17 01:49:06;;;;;;;3.07;2.60;;;;;;;7.10;100.00;101258.19;4989863;28;20105;-83
2021/10/17 01:51:33;;;;;;;4.07;3.00;;;;;;;7.10;100.00;101259.06;5008445;28;20037;-83
2021/10/17 01:54:03;;;;;;;4.30;2.43;;;;;;;7.10;100.00;101245.94;5003460;28;20049;-84
2021/10/17 01:56:34;;;;;;;4.57;2.73;;;;;;;7.10;100.00;101248.56;4979690;28;20472;-84
2021/10/17 01:59:00;;;;;;;6.80;2.85;;;;;;;7.12;100.00;101252.06;4969700;28;20049;-83
2021/10/17 02:01:27;;;;;;;5.40;2.60;;;;;;;7.09;100.00;101243.31;4982713;28;20077;-83
2021/10/17 02:03:54;;;;;;;4.10;2.50;;;;;;;7.12;100.00;101240.69;4989686;28;20041;-82
2021/10/17 02:06:21;;;;;;;4.38;2.58;;;;;;;7.13;100.00;101243.31;5001721;28;20048;-82
2021/10/17 02:08:48;;;;;;;5.95;3.03;;;;;;;7.16;100.00;101245.97;4987027;28;20034;-82
2021/10/17 02:11:14;;;;;;;5.63;2.90;;;;;;;7.12;100.00;101241.56;5008420;28;20053;-82
2021/10/17 02:13:41;;;;;;;4.70;2.78;;;;;;;7.08;100.00;101238.94;4993160;28;20545;-83
2021/10/17 02:16:08;;;;;;;4.97;2.70;;;;;;;7.08;100.00;101242.44;4993148;28;20719;-83
2021/10/17 02:18:34;;;;;;;6.77;3.07;;;;;;;7.06;100.00;101241.53;5004870;28;20386;-83
2021/10/17 02:21:02;;;;;;;3.65;2.58;;;;;;;7.02;100.00;101235.41;4993581;28;20527;-83
2021/10/17 02:23:29;;;;;;;4.03;2.40;;;;;;;6.99;100.00;101230.16;4990372;28;20101;-83
2021/10/17 02:25:55;;;;;;;4.60;3.03;;;;;;;6.98;100.00;101217.03;5006979;23;20025;-81
2021/10/17 02:28:22;;;;;;;6.27;2.67;;;;;;;6.93;100.00;101224.00;4953495;28;20116;-81
2021/10/17 02:30:49;;;;;;;4.87;2.67;;;;;;;6.90;100.00;101224.88;4974634;28;20047;-81
2021/10/17 02:33:16;;;;;;;4.00;2.87;;;;;;;6.77;100.00;101213.44;4976225;28;20042;-80
2021/10/17 02:35:46;;;;;;;5.83;2.80;;;;;;;6.67;100.00;101216.03;4991721;28;20038;-81
2021/10/17 02:38:13;;;;;;;5.17;2.90;;;;;;;6.59;100.00;101215.97;4989364;28;20089;-81
2021/10/17 02:40:39;;;;;;;5.43;2.93;;;;;;;6.55;100.00;101213.31;4972812;28;20112;-81
2021/10/17 02:43:07;;;;;;;4.17;3.27;;;;;;;6.46;100.00;101215.03;5000650;28;20049;-82
2021/10/17 02:45:35;;;;;;;3.57;2.70;;;;;;;6.39;100.00;101215.88;4976913;28;20056;-82
2021/10/17 02:48:02;;;;;;;6.13;2.97;;;;;;;6.33;100.00;101225.47;4974172;28;20893;-82
2021/10/17 02:50:28;;;;;;;3.80;2.57;;;;;;;6.22;100.00;101230.63;4978577;28;20042;-81
2021/10/17 02:52:55;;;;;;;7.73;3.00;;;;;;;6.23;100.00;101234.16;4984615;28;20057;-82
2021/10/17 02:55:22;;;;;;;5.53;3.13;;;;;;;6.25;100.00;101235.03;4996241;28;20070;-82
2021/10/17 02:57:48;;;;;;;5.77;2.90;;;;;;;6.16;100.00;101236.72;4990513;28;20088;-83
2021/10/17 03:00:17;;;;;;;4.67;3.10;;;;;;;6.13;100.00;101231.44;4983156;28;20080;-84
2021/10/17 03:02:44;;;;;;;3.47;2.60;;;;;;;6.05;100.00;101233.13;4974536;28;20052;-82
2021/10/17 03:05:11;;;;;;;2.90;2.20;;;;;;;5.98;100.00;101231.38;4974410;28;20070;-84
2021/10/17 03:07:38;;;;;;;4.70;2.60;;;;;;;5.93;100.00;101223.44;4990233;28;20496;-83
2021/10/17 03:10:06;;;;;;;7.17;3.13;;;;;;;5.91;100.00;101214.69;4970842;28;20042;-84
2021/10/17 03:12:33;;;;;;;6.53;2.80;;;;;;;5.87;100.00;101220.72;4988497;28;20402;-82
2021/10/17 03:15:00;;;;;;;6.37;2.83;;;;;;;5.77;100.00;101205.81;4972647;28;20060;-83
2021/10/17 03:17:26;;;;;;;2.87;2.40;;;;;;;5.85;100.00;101217.22;5007760;28;20045;-82
2021/10/17 03:19:54;;;;;;;4.73;2.40;;;;;;;5.86;100.00;101223.34;4989784;28;20070;-82
2021/10/17 03:22:21;;;;;;;6.57;2.80;;;;;;;5.80;100.00;101229.44;4992145;28;20057;-82
2021/10/17 03:24:48;;;;;;;5.40;2.43;;;;;;;5.63;100.00;101229.31;4974107;28;20046;-82
2021/10/17 03:27:15;;;;;;;4.43;2.40;;;;;;;5.52;100.00;101224.81;4990993;28;20070;-82
2021/10/17 03:29:42;;;;;;;4.30;2.80;;;;;;;5.49;100.00;101223.06;4976246;28;20050;-82
2021/10/17 03:32:08;;;;;;;6.70;2.53;;;;;;;5.56;100.00;101226.63;4991275;28;20129;-82
2021/10/17 03:34:35;;;;;;;6.27;2.93;;;;;;;5.51;100.00;101229.19;4973956;28;20529;-81
2021/10/17 03:37:02;;;;;;;4.87;2.70;;;;;;;5.44;100.00;101227.34;4975673;28;20057;-83
2021/10/17 03:39:29;;;;;;;4.00;2.20;;;;;;;5.46;100.00;101227.38;4973740;28;20096;-82
2021/10/17 03:41:56;;;;;;;4.23;2.63;;;;;;;5.44;100.00;101229.97;4971613;28;20505;-82
2021/10/17 03:44:23;;;;;;;5.80;2.40;;;;;;;5.47;100.00;101229.16;4938938;28;20047;-81
2021/10/17 03:46:50;;;;;;;6.83;3.13;;;;;;;5.45;100.00;101230.84;4973415;28;20070;-83
2021/10/17 03:49:16;;;;;;;6.27;2.80;;;;;;;5.37;100.00;101230.78;4973525;28;20054;-81
2021/10/17 03:51:43;;;;;;;4.87;2.80;;;;;;;5.35;100.00;101227.28;4991456;28;20054;-82
2021/10/17 03:54:10;;;;;;;4.57;3.10;;;;;;;5.40;100.00;101228.22;4973392;28;20042;-82
2021/10/17 03:56:37;;;;;;;3.50;2.60;;;;;;;5.30;100.00;101227.25;4988106;28;20071;-82
2021/10/17 03:59:03;;;;;;;6.77;4.73;;;;;;;5.26;100.00;101238.53;4979465;28;20074;-82
2021/10/17 04:01:30;;;;;;;8.23;4.47;;;;;;;5.29;100.00;101235.06;4958274;28;20050;-82
2021/10/17 04:03:57;;;;;;;8.97;3.73;;;;;;;5.21;100.00;101235.00;4989633;28;20038;-82
2021/10/17 04:06:24;;;;;;;5.60;3.57;;;;;;;5.21;100.00;101227.16;4975262;28;20047;-82
2021/10/17 04:08:51;;;;;;;5.10;2.60;;;;;;;5.23;100.00;101224.53;4988801;28;20038;-82
2021/10/17 04:11:17;;;;;;;3.73;2.37;;;;;;;5.17;100.00;101225.34;4958815;28;20050;-82
2021/10/17 04:13:44;;;;;;;4.83;2.97;;;;;;;5.15;100.00;101228.81;4973240;28;20042;-82
2021/10/17 04:16:11;;;;;;;4.10;2.70;;;;;;;5.16;100.00;101225.34;4974642;28;20076;-82
2021/10/17 04:18:38;;;;;;;5.10;3.03;;;;;;;5.22;100.00;101228.91;4973046;28;20098;-82
2021/10/17 04:21:05;;;;;;;7.07;2.97;;;;;;;5.22;100.00;101222.78;4974561;28;20053;-82
2021/10/17 04:23:32;;;;;;;5.07;3.03;;;;;;;5.16;100.00;101226.22;4971231;28;20050;-82
2021/10/17 04:25:59;;;;;;;4.47;3.47;;;;;;;5.15;100.00;101218.34;4986384;28;20410;-82
2021/10/17 04:28:26;;;;;;;7.60;2.90;;;;;;;5.12;100.00;101221.78;4973301;28;20058;-83
2021/10/17 04:30:53;;;;;;;4.23;3.13;;;;;;;5.12;100.00;101218.28;4991108;28;20070;-83
2021/10/17 04:33:19;;;;;;;3.90;3.07;;;;;;;5.13;100.00;101218.34;4992470;28;20038;-83
2021/10/17 04:35:47;;;;;;;4.70;3.37;;;;;;;5.15;100.00;101208.75;4971995;28;20571;-83
2021/10/17 04:38:14;;;;;;;4.77;3.07;;;;;;;5.15;100.00;101211.38;4963711;28;20043;-82
2021/10/17 04:40:41;;;;;;;7.03;3.30;;;;;;;5.16;100.00;101204.38;4993699;28;20092;-82
2021/10/17 04:43:11;;;;;;;8.87;3.07;;;;;;;5.17;100.00;101196.53;4977901;28;20080;-83
2021/10/17 04:45:37;;;;;;;6.17;3.10;;;;;;;5.19;100.00;101192.19;4993603;28;20046;-82
2021/10/17 04:48:05;;;;;;;5.53;2.90;;;;;;;5.25;100.00;101197.50;4978342;28;20069;-83
2021/10/17 04:50:31;;;;;;;6.50;3.20;;;;;;;5.27;100.00;101200.13;4993651;28;20117;-83
2021/10/17 04:52:58;;;;;;;6.53;3.00;;;;;;;5.28;100.00;101201.88;4996520;28;20106;-83
2021/10/17 04:55:25;;;;;;;6.23;3.60;;;;;;;5.26;100.00;101199.25;4979373;28;20049;-81
2021/10/17 04:57:52;;;;;;;3.80;2.90;;;;;;;5.27;100.00;101198.38;4976916;28;20070;-82
2021/10/17 05:00:19;;;;;;;6.00;3.00;;;;;;;5.27;100.00;101201.00;4984739;28;20513;-83
2021/10/17 05:02:46;;;;;;;6.17;3.83;;;;;;;5.27;100.00;101194.88;4983438;28;20053;-82
2021/10/17 05:05:13;;;;;;;5.83;3.67;;;;;;;5.26;100.00;101200.97;4964626;28;20512;-81
2021/10/17 05:07:41;;;;;;;6.00;3.73;;;;;;;5.29;100.00;101201.00;4979985;28;20043;-82
2021/10/17 05:10:08;;;;;;;3.63;2.87;;;;;;;5.27;100.00;101203.63;4991364;28;20109;-82
2021/10/17 05:12:35;;;;;;;4.17;2.80;;;;;;;5.26;100.00;101199.25;4994815;28;20050;-83
2021/10/17 05:15:02;;;;;;;5.53;3.03;;;;;;;5.27;100.00;101193.13;4993697;28;20183;-83
2021/10/17 05:17:29;;;;;;;4.83;2.77;;;;;;;5.30;100.00;101201.03;4963042;28;20046;-82
2021/10/17 05:19:55;;;;;;;4.20;2.87;;;;;;;5.31;100.00;101192.31;4976765;28;20046;-83
2021/10/17 05:22:22;;;;;;;4.70;3.00;;;;;;;5.34;100.00;101196.69;4978821;28;20050;-84
2021/10/17 05:24:49;;;;;;;3.77;2.87;;;;;;;5.35;100.00;101203.69;4977958;28;20046;-83
2021/10/17 05:27:16;;;;;;;4.70;2.90;;;;;;;5.35;100.00;101201.94;4970824;28;20039;-83
2021/10/17 05:29:43;;;;;;;3.97;3.10;;;;;;;5.39;100.00;101202.88;4980388;28;20052;-85
2021/10/17 05:32:09;;;;;;;4.40;3.03;;;;;;;5.40;100.00;101201.13;4995878;28;20053;-86
2021/10/17 05:34:36;;;;;;;6.23;3.73;;;;;;;5.40;100.00;101209.88;4962598;28;20117;-84
2021/10/17 05:37:03;;;;;;;4.17;2.73;;;;;;;5.43;100.00;101209.00;4996450;28;20046;-83
2021/10/17 05:39:30;;;;;;;5.87;3.10;;;;;;;5.45;100.00;101202.03;4994813;28;20057;-85
2021/10/17 05:41:57;;;;;;;4.30;3.03;;;;;;;5.47;100.00;101208.19;4979629;28;20082;-85
2021/10/17 05:44:24;;;;;;;5.37;3.00;;;;;;;5.51;100.00;101212.56;4976543;28;20053;-84
2021/10/17 05:46:51;;;;;;;4.73;3.27;;;;;;;5.52;100.00;101214.31;4995952;28;20050;-84
2021/10/17 05:49:17;;;;;;;8.80;3.83;;;;;;;5.53;100.00;101206.47;4993437;28;20121;-82
2021/10/17 05:51:44;;;;;;;5.20;3.20;;;;;;;5.54;100.00;101208.22;4978574;28;20120;-85
2021/10/17 05:54:11;;;;;;;9.53;3.50;;;;;;;5.58;100.00;101206.53;4977525;28;20043;-82
2021/10/17 05:56:38;;;;;;;11.83;7.97;;;;;;;5.60;100.00;101215.28;4989278;28;20061;-83
2021/10/17 05:59:09;;;;;;;18.30;10.47;;;;;;;5.61;100.00;101212.66;4992904;28;20050;-84
2021/10/17 06:01:36;;;;;;;71.67;42.70;;;;;;;5.64;100.00;101217.94;4962844;28;20505;-83
2021/10/17 06:04:03;;;;;;;23.57;14.87;;;;;;;5.66;100.00;101210.09;4977085;28;20054;-82
2021/10/17 06:06:30;;;;;;;13.50;8.03;;;;;;;5.70;100.00;101201.38;4994392;28;20149;-83
2021/10/17 06:08:59;;;;;;;6.97;4.60;;;;;;;5.74;100.00;101203.16;4974476;28;20046;-82
2021/10/17 06:11:27;;;;;;;4.97;3.67;;;;;;;5.77;100.00;101203.19;4988220;28;20412;-83
2021/10/17 06:13:54;;;;;;;5.50;3.50;;;;;;;5.81;100.00;101202.34;4994643;28;20496;-82
2021/10/17 06:16:21;;;;;;;4.53;3.70;;;;;;;5.80;100.00;101199.69;4995440;28;20477;-83
2021/10/17 06:18:47;;;;;;;10.67;4.90;;;;;;;5.83;100.00;101198.00;5009688;28;20552;-82
2021/10/17 06:21:14;;;;;;;5.43;3.87;;;;;;;5.88;100.00;101208.50;5008736;28;20549;-82
2021/10/17 06:23:41;;;;;;;6.37;3.67;;;;;;;5.94;100.00;101208.59;5008160;28;20437;-85
2021/10/17 06:26:08;;;;;;;5.70;4.00;;;;;;;5.97;100.00;101205.09;4979505;28;20042;-82
2021/10/17 06:28:35;;;;;;;6.27;4.67;;;;;;;6.02;100.00;101203.41;5017088;28;20093;-82
2021/10/17 06:31:01;;;;;;;5.40;3.37;;;;;;;6.18;100.00;101210.50;4988776;28;20046;-84
2021/10/17 06:33:29;;;;;;;5.93;3.50;;;;;;;6.23;100.00;101205.31;5002052;28;20088;-84
2021/10/17 06:35:56;;;;;;;6.27;3.83;;;;;;;6.25;100.00;101212.31;4965915;28;20046;-82
2021/10/17 06:38:23;;;;;;;8.20;4.20;;;;;;;6.31;100.00;101208.84;4995165;28;20046;-83
2021/10/17 06:40:50;;;;;;;7.83;4.33;;;;;;;6.35;100.00;101213.22;5013418;28;20054;-83
2021/10/17 06:43:17;;;;;;;4.07;3.30;;;;;;;6.40;100.00;101206.28;5008387;28;20039;-84
2021/10/17 06:45:44;;;;;;;7.03;4.43;;;;;;;6.46;100.00;101214.16;4985639;28;20050;-83
2021/10/17 06:48:11;;;;;;;7.77;3.83;;;;;;;6.54;100.00;101212.44;4998811;28;20142;-83
2021/10/17 06:50:39;;;;;;;5.97;4.37;;;;;;;6.60;100.00;101211.59;4959336;28;20124;-84
2021/10/17 06:53:06;;;;;;;4.70;3.57;;;;;;;6.62;100.00;101220.34;4994001;28;20039;-84
2021/10/17 06:55:33;;;;;;;5.60;3.33;;;;;;;6.68;100.00;101223.91;4963417;28;20050;-83
2021/10/17 06:58:00;;;;;;;4.80;3.40;;;;;;;6.74;100.00;101218.69;4958378;28;20042;-83
2021/10/17 07:00:27;;;;;;;5.30;3.10;;;;;;;6.82;100.00;101215.22;5004459;28;20152;-83
2021/10/17 07:02:54;;;;;;;7.60;3.63;;;;;;;6.96;97.76;101216.13;4997704;28;20038;-87
2021/10/17 07:05:21;;;;;;;6.73;3.33;;;;;;;6.95;98.07;101217.00;4993859;28;20065;-83
2021/10/17 07:07:48;;;;;;;4.63;3.10;;;;;;;7.00;98.97;101210.88;4981133;28;20043;-83
2021/10/17 07:10:15;;;;;;;8.73;3.67;;;;;;;7.07;98.64;101216.16;4981018;28;20064;-84
2021/10/17 07:12:42;;;;;;;6.70;3.60;;;;;;;7.18;94.53;101215.31;4963455;28;20484;-84
2021/10/17 07:15:09;;;;;;;4.70;3.03;;;;;;;7.17;95.55;101213.56;4993856;28;20043;-84
2021/10/17 07:17:36;;;;;;;6.17;3.73;;;;;;;7.20;94.16;101208.28;4996769;28;20053;-83
2021/10/17 07:20:11;;;;;;;5.78;3.10;;;;;;;7.20;92.86;101203.03;4978396;28;20576;-84
2021/10/17 07:22:37;;;;;;;6.13;3.50;;;;;;;7.40;92.25;101217.97;4964325;28;20046;-85
2021/10/17 07:25:04;;;;;;;10.17;4.27;;;;;;;7.36;92.41;101213.59;4990693;28;20098;-82
2021/10/17 07:27:31;;;;;;;6.22;3.35;;;;;;;7.41;91.87;101211.84;5017114;28;20552;-83
2021/10/17 07:29:58;;;;;;;5.60;3.80;;;;;;;7.43;93.09;101216.22;4993122;28;20038;-82
2021/10/17 07:32:25;;;;;;;4.20;2.97;;;;;;;7.43;93.68;101223.25;4963163;28;20046;-84
2021/10/17 07:34:52;;;;;;;6.88;3.55;;;;;;;7.49;89.50;101215.38;4984103;28;20552;-83
2021/10/17 07:37:18;;;;;;;6.40;4.57;;;;;;;7.60;90.96;101221.50;4996339;28;20046;-83
2021/10/17 07:39:46;;;;;;;6.30;3.57;;;;;;;7.65;89.58;101216.22;4994902;28;20050;-84
2021/10/17 07:42:13;;;;;;;8.25;4.28;;;;;;;7.67;91.21;101220.63;4982475;28;20493;-85
2021/10/17 07:44:40;;;;;;;8.75;3.70;;;;;;;7.70;92.89;101222.38;4980397;28;20508;-84
2021/10/17 07:47:17;;;;;;;6.50;3.00;;;;;;;7.80;88.76;101219.75;4973985;28;20062;-87
2021/10/17 07:49:44;;;;;;;5.60;3.47;;;;;;;7.90;86.64;101223.25;4968877;28;20048;-87
2021/10/17 07:52:11;;;;;;;8.75;3.60;;;;;;;7.82;87.92;101218.00;5001524;28;20117;-83
2021/10/17 07:54:40;;;;;;;6.80;3.30;;;;;;;7.86;89.33;101217.13;4979088;28;20136;-84
2021/10/17 07:57:06;;;;;;;5.40;3.55;;;;;;;7.84;89.88;101218.00;4983482;28;20473;-85
2021/10/17 07:59:33;;;;;;;5.57;3.05;;;;;;;7.88;89.63;101203.97;4994102;28;20046;-85
2021/10/17 08:02:00;;;;;;;5.68;3.42;;;;;;;7.97;89.70;101209.22;4981983;28;20134;-85
2021/10/17 08:04:27;;;;;;;5.93;3.67;;;;;;;8.02;88.95;101215.34;4994668;28;20122;-84
2021/10/17 08:06:54;;;;;;;7.75;3.70;;;;;;;8.02;86.69;101204.84;4996009;28;20058;-84
2021/10/17 08:09:22;;;;;;;5.00;3.10;;;;;;;8.15;87.63;101210.94;4962726;28;20272;-83
2021/10/17 08:11:48;;;;;;;7.03;3.47;;;;;;;8.17;88.96;101209.19;4971335;28;20037;-83
2021/10/17 08:14:15;;;;;;;7.00;3.55;;;;;;;8.32;87.60;101205.63;4999346;28;20085;-85
2021/10/17 08:16:42;;;;;;;7.60;3.58;;;;;;;8.43;89.16;101202.16;4984609;28;20042;-84
2021/10/17 08:19:09;;;;;;;16.13;8.68;;;;;;;8.50;87.99;101199.50;4961760;28;20038;-84
2021/10/17 08:21:36;;;;;;;5.05;3.28;;;;;;;8.59;87.11;101202.09;4997232;28;20046;-84
2021/10/17 08:24:03;;;;;;;5.20;3.70;;;;;;;8.60;88.38;101206.47;4981174;28;20133;-83
2021/10/17 08:26:30;;;;;;;10.85;3.95;;;;;;;8.63;88.38;101209.09;5017729;28;20501;-84
2021/10/17 08:28:56;;;;;;;8.35;4.97;;;;;;;8.59;87.87;101207.38;4995872;28;20069;-85
2021/10/17 08:31:24;;;;;;;6.90;3.50;;;;;;;8.53;87.13;101210.00;4969714;28;20049;-85
2021/10/17 08:33:52;;;;;;;10.30;4.72;;;;;;;8.61;86.58;101217.00;5005616;28;20046;-84
2021/10/17 08:36:19;;;;;;;6.90;5.07;;;;;;;8.55;88.64;101214.38;4986468;28;20431;-87
2021/10/17 08:39:06;;;;;;;13.45;7.22;;;;;;;8.49;89.99;101219.66;4979395;28;20493;-84
2021/10/17 08:41:33;;;;;;;8.23;5.30;;;;;;;8.49;90.42;101226.69;4979830;28;20141;-83
2021/10/17 08:44:01;;;;;;;7.00;4.22;;;;;;;8.40;90.98;101225.81;5010353;28;20042;-85
2021/10/17 08:46:29;;;;;;;6.85;3.40;;;;;;;8.40;92.56;101227.59;4962498;28;20050;-84
2021/10/17 08:48:57;;;;;;;7.10;4.63;;;;;;;8.41;92.86;101219.72;5052637;23;20037;-81
2021/10/17 08:51:24;;;;;;;6.88;3.95;;;;;;;8.34;92.73;101230.22;5043816;28;20048;-86
2021/10/17 08:53:54;;;;;;;9.75;5.07;;;;;;;8.42;90.77;101224.09;5032395;28;20037;-81
2021/10/17 08:56:25;;;;;;;;;;;;;;;8.39;89.99;101231.97;5049172;28;20045;-82
2021/10/17 08:58:52;;;;;;;7.25;4.72;;;;;;;8.36;92.76;101218.84;5048435;28;19971;-82
2021/10/17 09:01:19;;;;;;;13.00;3.92;;;;;;;8.43;91.41;101217.06;5038958;28;20399;-81
2021/10/17 09:03:59;;;;;;;7.97;3.78;;;;;;;8.37;91.31;101215.31;5038581;28;20110;-84
2021/10/17 09:06:34;;;;;;;8.60;3.70;;;;;;;8.37;91.39;101209.19;5016879;28;20053;-85
2021/10/17 09:09:05;;;;;;;6.25;4.03;;;;;;;8.57;91.32;101211.75;5033172;28;20052;-81
2021/10/17 09:11:37;;;;;;;6.78;4.80;;;;;;;8.57;92.33;101217.00;5033811;28;20063;-82
2021/10/17 09:14:05;;;;;;;8.52;3.97;;;;;;;8.70;90.97;101222.22;5031678;28;20037;-81
2021/10/17 09:16:37;;;;;;;6.95;3.78;;;;;;;8.91;88.37;101223.00;5016266;28;20135;-85
2021/10/17 09:19:12;;;;;;;4.68;3.75;;;;;;;8.92;90.46;101216.88;5013675;28;20670;-80
2021/10/17 09:22:08;;;;;;;6.03;4.07;;;;;;;8.93;91.09;101211.59;5033985;28;20049;-82
2021/10/17 09:24:34;;;;;;;6.63;4.35;;;;;;;9.28;88.23;101205.25;5018770;28;20454;-81
2021/10/17 09:27:03;;;;;;;5.97;3.60;;;;;;;9.48;85.84;101213.03;5053690;28;20049;-81
2021/10/17 09:29:31;;;;;;;6.40;4.18;;;;;;;9.61;85.07;101201.50;5031898;28;20045;-82
2021/10/17 09:31:58;;;;;;;8.68;4.10;;;;;;;9.88;85.47;101205.66;5028875;28;20048;-83
2021/10/17 09:34:29;;;;;;;9.75;4.05;;;;;;;10.02;83.87;101208.19;5052090;28;20393;-83
2021/10/17 09:37:10;;;;;;;7.35;3.72;;;;;;;10.16;81.97;101209.78;5036961;28;20041;-85
2021/10/17 09:39:41;;;;;;;9.07;3.85;;;;;;;10.37;80.78;101205.22;5053055;28;20045;-85
2021/10/17 09:42:08;;;;;;;7.22;3.78;;;;;;;10.60;81.34;101191.75;5063491;28;20040;-83
2021/10/17 09:44:36;;;;;;;8.80;4.00;;;;;;;10.71;78.41;101203.06;5043722;28;20102;-86
2021/10/17 09:47:03;;;;;;;11.00;4.22;;;;;;;10.73;78.95;101203.03;5031167;28;20045;-84
2021/10/17 09:49:30;;;;;;;8.00;3.70;;;;;;;10.73;78.80;101197.75;5018425;28;20511;-82
2021/10/17 09:52:10;;;;;;;8.30;3.58;;;;;;;10.77;78.18;101215.34;5019155;28;20095;-84
2021/10/17 09:54:37;;;;;;;10.05;4.63;;;;;;;10.83;77.48;101225.81;5003576;28;20041;-80
2021/10/17 09:57:06;;;;;;;9.25;3.55;;;;;;;10.82;77.66;101221.41;5045065;28;20045;-82
2021/10/17 09:59:36;;;;;;;6.85;3.83;;;;;;;10.88;78.25;101219.56;5020494;28;20052;-81
2021/10/17 10:02:07;;;;;;;14.55;8.27;;;;;;;10.93;78.82;101225.69;5023575;28;20052;-83
2021/10/17 10:04:37;;;;;;;9.70;5.15;;;;;;;10.96;76.21;101217.72;5038313;28;20051;-85
2021/10/17 10:07:05;;;;;;;7.22;4.70;;;;;;;10.92;77.50;101221.28;5055467;28;20412;-86
2021/10/17 10:09:32;;;;;;;8.02;4.80;;;;;;;10.87;76.81;101217.84;5020745;28;20049;-82
2021/10/17 10:12:02;;;;;;;5.63;4.30;;;;;;;10.61;77.49;101217.28;5037069;28;20139;-82
2021/10/17 10:14:30;;;;;;;9.27;4.20;;;;;;;10.93;80.54;101215.13;5037361;28;20052;-82
2021/10/17 10:17:03;;;;;;;9.48;4.82;;;;;;;11.24;77.77;101206.75;5030833;28;20041;-82
2021/10/17 10:19:31;;;;;;;9.80;4.78;;;;;;;11.36;77.74;101209.22;5048748;28;20094;-82
2021/10/17 10:21:57;;;;;;;6.55;3.80;;;;;;;11.36;78.52;101216.28;5031883;28;20048;-82
2021/10/17 10:24:27;;;;;;;8.00;3.90;;;;;;;11.39;75.90;101216.22;5034866;28;20072;-86
2021/10/17 10:26:54;;;;;;;7.20;4.43;;;;;;;11.30;76.04;101219.88;5037183;28;20044;-81
2021/10/17 10:29:26;;;;;;;7.10;3.72;;;;;;;11.20;77.17;101211.22;5021961;28;20098;-81
2021/10/17 10:31:54;;;;;;;9.23;4.00;;;;;;;11.12;76.39;101209.56;5015790;28;20042;-81
2021/10/17 10:34:21;;;;;;;11.25;4.78;;;;;;;10.94;77.82;101214.22;5019426;28;20543;-80
2021/10/17 10:36:55;;;;;;;9.15;4.63;;;;;;;11.07;78.55;101219.34;5040767;28;20047;-82
2021/10/17 10:39:23;;;;;;;6.38;4.05;;;;;;;11.12;76.61;101223.66;5003253;28;20040;-79
2021/10/17 10:42:03;;;;;;;8.65;3.90;;;;;;;11.17;79.33;101227.09;5052467;28;20037;-82
2021/10/17 10:44:30;;;;;;;4.65;3.33;;;;;;;11.29;78.79;101223.44;5036876;28;20037;-83
2021/10/17 10:46:57;;;;;;;7.47;3.92;;;;;;;11.36;76.31;101222.47;5037337;28;20052;-82
2021/10/17 10:49:40;;;;;;;7.97;3.65;;;;;;;11.59;77.78;101224.72;5063071;28;20051;-84
2021/10/17 10:52:23;;;;;;;8.95;3.78;;;;;;;11.67;75.29;101217.53;5038114;28;20185;-84
2021/10/17 10:54:51;;;;;;;6.13;3.67;;;;;;;12.16;74.27;101229.13;5013909;28;20051;-84
2021/10/17 10:57:19;;;;;;;10.00;5.90;;;;;;;12.21;76.66;101230.78;5024982;28;20052;-82
2021/10/17 11:00:02;;;;;;;8.65;5.65;;;;;;;12.21;73.18;101229.91;5046243;28;20116;-84
2021/10/17 11:02:29;;;;;;;11.05;6.88;;;;;;;12.18;72.91;101222.88;5067561;28;20053;-87
2021/10/17 11:04:57;;;;;;;9.15;5.32;;;;;;;12.06;76.23;101228.41;5020725;28;20047;-85
2021/10/17 11:07:27;;;;;;;33.17;20.95;;;;;;;12.04;76.22;101238.16;5055828;28;20415;-84
2021/10/17 11:09:55;;;;;;;126.80;73.57;;;;;;;11.99;76.13;101234.72;5036521;28;20040;-86
2021/10/17 11:12:40;;;;;;;69.28;55.30;;;;;;;11.96;74.07;101229.47;5021089;28;20067;-85
2021/10/17 11:15:08;;;;;;;6.90;4.72;;;;;;;11.93;76.58;101229.50;5034682;28;20033;-82
2021/10/17 11:17:35;;;;;;;6.88;4.55;;;;;;;11.93;76.68;101227.72;5037570;28;20044;-85
2021/10/17 11:20:04;;;;;;;10.85;5.10;;;;;;;11.97;77.42;101226.78;5035966;28;20048;-88
2021/10/17 11:22:35;;;;;;;7.45;4.10;;;;;;;11.94;78.25;101228.59;5057244;28;20045;-85
2021/10/17 11:25:02;;;;;;;7.20;4.18;;;;;;;11.96;79.00;101235.66;5028843;28;20098;-85
2021/10/17 11:27:28;;;;;;;6.38;4.60;;;;;;;11.98;78.75;101227.66;5058888;28;20036;-85
2021/10/17 11:29:55;;;;;;;31.85;22.40;;;;;;;11.93;76.79;101230.38;5053865;28;20090;-83